Comet Ace — H3AM — position and weather

sailwx.info

Track history (hours):
 
Tides and Currents Weather Stations Pressure Air Temp Water Temp Dewpoint Dewpoint Depression Visibility Wind Speed Wind Dir Waves Ship Positions

Comet Ace

Last reported at 2018-Apr-10 11:20 UTC. Time now 2018-Apr-21 07:59 UTC.
Position N 30°28' W 124°58'.
Warning: this ship's position is 10 days out of date.

Length 175 m; draft 6.8 m.

Type: Cargo ship. MMSI: 351757000.

Date/timePositionNaut miles runAvg speedWind from/ knotsBaromVisibWave heightAir tempDewpointWater temp
2018-Apr-10 11:20N 30°28' W 124°58'916.1
2018-Apr-10 10:48N 30°28' W 124°48'716.0
2018-Apr-10 10:21N 30°28' W 124°40'816.1
2018-Apr-10 09:52N 30°27' W 124°31'616.0
2018-Apr-10 09:30N 30°27' W 124°24'1716.0
2018-Apr-10 08:28N 30°26' W 124°05'1616.0
2018-Apr-10 07:29N 30°25' W 123°47'915.7
2018-Apr-10 06:56N 30°24' W 123°37'715.8
2018-Apr-10 06:30N 30°24' W 123°29'6315.8
2018-Apr-10 02:30N 30°20' W 122°16'816.1
2018-Apr-10 02:00N 30°21' W 122°07'15415.3
2018-Apr-09 15:56N 30°52' W 119°12'5315.6
2018-Apr-09 12:33N 31°16' W 118°17'116.1
2018-Apr-09 12:30N 31°16' W 118°16'1916.5
2018-Apr-09 11:22N 31°30' W 118°01'615.7
2018-Apr-09 10:59N 31°35' W 117°56'715.5
2018-Apr-09 10:30N 31°41' W 117°51'815.6
2018-Apr-09 10:00N 31°47' W 117°45'1615.8
2018-Apr-09 08:58N 32°02' W 117°38'816.5
2018-Apr-09 08:29N 32°10' W 117°38'816.6
2018-Apr-09 08:00N 32°18' W 117°38'816.9
2018-Apr-09 07:30N 32°26' W 117°38'816.8
2018-Apr-09 07:00N 32°35' W 117°39'816.9
2018-Apr-09 06:30N 32°42' W 117°44'816.7
2018-Apr-09 06:00N 32°49' W 117°48'816.7
2018-Apr-09 05:30N 32°57' W 117°53'815.7
2018-Apr-09 05:00N 33°04' W 117°57'510.4
2018-Apr-09 04:30N 33°09' W 117°60'510.1
2018-Apr-09 04:00N 33°13' W 118°02'5 9.7
2018-Apr-09 03:30N 33°17' W 118°05'5 9.3
2018-Apr-09 03:00N 33°22' W 118°07'5 9.6
2018-Apr-09 02:30N 33°26' W 118°09'5 9.8
2018-Apr-09 02:00N 33°31' W 118°11'5 9.7
2018-Apr-09 01:30N 33°35' W 118°13'4 9.0
2018-Apr-09 01:00N 33°40' W 118°15'4 7.5
2018-Apr-09 00:31N 33°43' W 118°16'3 5.3
2018-Apr-09 00:00N 33°46' W 118°15'0 0.3
2018-Apr-08 23:29N 33°46' W 118°15'0 0.0
2018-Apr-08 22:59N 33°46' W 118°15'0 0.0
2018-Apr-08 22:29N 33°46' W 118°15'0 0.0
2018-Apr-08 21:56N 33°46' W 118°15'0 0.0
2018-Apr-08 21:29N 33°46' W 118°15'0 0.0
2018-Apr-08 20:56N 33°46' W 118°15'0 0.0
2018-Apr-08 20:29N 33°46' W 118°15'0 0.0
2018-Apr-08 19:59N 33°46' W 118°15'0 0.0
2018-Apr-08 19:29N 33°46' W 118°15'0 0.0
2018-Apr-08 18:59N 33°46' W 118°15'0 0.0
2018-Apr-08 18:29N 33°46' W 118°15'0 0.0
2018-Apr-08 17:59N 33°46' W 118°15'0 0.0
2018-Apr-08 17:29N 33°46' W 118°15'0 0.0
2018-Apr-08 16:59N 33°46' W 118°15'0 0.0
2018-Apr-08 16:29N 33°46' W 118°15'0 0.0
2018-Apr-08 15:59N 33°46' W 118°15'0 0.0
2018-Apr-08 15:29N 33°46' W 118°15'0 0.0
2018-Apr-08 14:59N 33°46' W 118°15'0 0.0
2018-Apr-08 14:29N 33°46' W 118°15'0 0.0
2018-Apr-08 13:59N 33°46' W 118°15'0 0.0
2018-Apr-08 13:30N 33°46' W 118°15'0 0.4
2018-Apr-08 13:00N 33°46' W 118°15'2 3.4
2018-Apr-08 12:31N 33°45' W 118°17'3 6.0
2018-Apr-08 12:00N 33°42' W 118°15'3 6.5
2018-Apr-08 11:31N 33°39' W 118°13'4 7.0
2018-Apr-08 11:00N 33°36' W 118°15'3 5.8
2018-Apr-08 10:30N 33°35' W 118°19'4 7.7
2018-Apr-08 10:00N 33°35' W 118°23'4 8.6
2018-Apr-08 09:30N 33°35' W 118°28'4 8.7
2018-Apr-08 09:00N 33°36' W 118°33'5 9.3
2018-Apr-08 08:31N 33°37' W 118°39'  
2018-Apr-05 08:16N 48°15' W 125°18'515.9
2018-Apr-05 07:58N 48°19' W 125°14'816.2
2018-Apr-05 07:29N 48°25' W 125°06'815.4
2018-Apr-05 06:59N 48°30' W 124°58'816.9
2018-Apr-05 06:30N 48°31' W 124°46'816.7
2018-Apr-05 06:00N 48°28' W 124°34'816.7
2018-Apr-05 05:31N 48°25' W 124°22'816.1
2018-Apr-05 05:00N 48°22' W 124°11'816.1
2018-Apr-05 04:30N 48°19' W 123°60'915.9
2018-Apr-05 03:57N 48°16' W 123°47'1612.6
2018-Apr-05 02:40N 48°22' W 123°24'1 8.6
2018-Apr-05 02:30N 48°23' W 123°22'612.9
2018-Apr-05 02:00N 48°25' W 123°13'816.6
2018-Apr-05 01:30N 48°33' W 123°13'815.9
2018-Apr-05 01:00N 48°41' W 123°16'815.4
2018-Apr-05 00:29N 48°45' W 123°06'611.7
2018-Apr-05 00:00N 48°51' W 123°02'815.3
2018-Apr-04 23:30N 48°56' W 123°11'815.9
2018-Apr-04 23:00N 49°01' W 123°20'510.5
2018-Apr-04 22:30N 49°06' W 123°18'611.6
2018-Apr-04 22:00N 49°07' W 123°09'611.9
2018-Apr-04 21:30N 49°09' W 123°01'4 8.2
2018-Apr-04 20:58N 49°11' W 122°55'0 0.2
2018-Apr-04 20:28N 49°11' W 122°55'0 0.0
2018-Apr-04 19:58N 49°11' W 122°55'0 0.0
2018-Apr-04 19:28N 49°11' W 122°55'0 0.0
2018-Apr-04 18:58N 49°11' W 122°55'0 0.0
2018-Apr-04 18:28N 49°11' W 122°55'0 0.0
2018-Apr-04 17:58N 49°11' W 122°55'0 0.0
2018-Apr-04 17:28N 49°11' W 122°55'0 0.0
2018-Apr-04 16:58N 49°11' W 122°55'0 0.0
2018-Apr-04 16:28N 49°11' W 122°55'0 0.0
2018-Apr-04 15:58N 49°11' W 122°55'0 0.0
2018-Apr-04 15:28N 49°11' W 122°55'0 0.0
2018-Apr-04 14:58N 49°11' W 122°55'0 0.0
2018-Apr-04 14:28N 49°11' W 122°55'0 0.0
2018-Apr-04 13:58N 49°11' W 122°55'0 0.0
2018-Apr-04 13:28N 49°11' W 122°55'0 0.0
2018-Apr-04 12:58N 49°11' W 122°55'0 0.0
2018-Apr-04 12:28N 49°11' W 122°55'0 0.0
2018-Apr-04 11:58N 49°11' W 122°55'0 0.0
2018-Apr-04 11:28N 49°11' W 122°55'0 0.0
2018-Apr-04 10:58N 49°11' W 122°55'0 0.0
2018-Apr-04 10:28N 49°11' W 122°55'0 0.0
2018-Apr-04 09:58N 49°11' W 122°55'0 0.0
2018-Apr-04 09:28N 49°11' W 122°55'0 0.0
2018-Apr-04 08:58N 49°11' W 122°55'0 0.0
2018-Apr-04 08:28N 49°11' W 122°55'0 0.0
2018-Apr-04 07:58N 49°11' W 122°55'0 0.0
2018-Apr-04 07:28N 49°11' W 122°55'0 0.0
2018-Apr-04 06:58N 49°11' W 122°55'0 0.2
2018-Apr-04 06:30N 49°11' W 122°55'0 0.4
2018-Apr-04 06:00N 49°11' W 122°55'0 0.0
2018-Apr-04 05:30N 49°11' W 122°55'0 0.0
2018-Apr-04 05:00N 49°11' W 122°55'0 0.0
2018-Apr-04 04:30N 49°11' W 122°55'0 0.0
2018-Apr-04 04:00N 49°11' W 122°55'0 0.0
2018-Apr-04 03:30N 49°11' W 122°55'0 0.0
2018-Apr-04 03:00N 49°11' W 122°55'0 0.0
2018-Apr-04 02:30N 49°11' W 122°55'0 0.0
2018-Apr-04 02:00N 49°11' W 122°55'0 0.0
2018-Apr-04 01:30N 49°11' W 122°55'0 0.0
2018-Apr-04 01:00N 49°11' W 122°55'0 0.0
2018-Apr-04 00:30N 49°11' W 122°55'0 0.0
2018-Apr-04 00:00N 49°11' W 122°55'0 0.0
2018-Apr-03 23:30N 49°11' W 122°55'0 0.0
2018-Apr-03 23:00N 49°11' W 122°55'0 0.0
2018-Apr-03 22:30N 49°11' W 122°55'0 0.0
2018-Apr-03 22:00N 49°11' W 122°55'0 0.0
2018-Apr-03 21:30N 49°11' W 122°55'0 0.0
2018-Apr-03 21:00N 49°11' W 122°55'0 0.0
2018-Apr-03 20:30N 49°11' W 122°55'0 0.0
2018-Apr-03 20:00N 49°11' W 122°55'0 0.0
2018-Apr-03 19:30N 49°11' W 122°55'0 0.0
2018-Apr-03 19:00N 49°11' W 122°55'0 0.0
2018-Apr-03 18:30N 49°11' W 122°55'0 0.0
2018-Apr-03 18:00N 49°11' W 122°55'0 0.0
2018-Apr-03 17:30N 49°11' W 122°55'0 0.0
2018-Apr-03 17:00N 49°11' W 122°55'0 0.0
2018-Apr-03 16:30N 49°11' W 122°55'0 0.0
2018-Apr-03 16:00N 49°11' W 122°55'0 0.0
2018-Apr-03 15:30N 49°11' W 122°55'0 0.0
2018-Apr-03 15:00N 49°11' W 122°55'0 0.0
2018-Apr-03 14:30N 49°11' W 122°55'0 0.0
2018-Apr-03 14:00N 49°11' W 122°55'0 0.0
2018-Apr-03 13:30N 49°11' W 122°55'0 0.0
2018-Apr-03 13:00N 49°11' W 122°55'0 0.0
2018-Apr-03 12:30N 49°11' W 122°55'0 0.0
2018-Apr-03 12:00N 49°11' W 122°55'0 0.0
2018-Apr-03 11:30N 49°11' W 122°55'0 0.0
2018-Apr-03 11:00N 49°11' W 122°55'0 0.0
2018-Apr-03 10:30N 49°11' W 122°55'0 0.0
2018-Apr-03 10:00N 49°11' W 122°55'0 0.0
2018-Apr-03 09:30N 49°11' W 122°55'0 0.0
2018-Apr-03 09:00N 49°11' W 122°55'0 0.0
2018-Apr-03 08:30N 49°11' W 122°55'0 0.0
2018-Apr-03 07:57N 49°11' W 122°55'0 0.0
2018-Apr-03 07:30N 49°11' W 122°55'0 0.0
2018-Apr-03 07:00N 49°11' W 122°55'0 0.0
2018-Apr-03 06:30N 49°11' W 122°55'0 0.0
2018-Apr-03 06:00N 49°11' W 122°55'0 0.0
2018-Apr-03 05:30N 49°11' W 122°55'0 0.0
2018-Apr-03 05:00N 49°11' W 122°55'0 0.0
2018-Apr-03 04:30N 49°11' W 122°55'0 0.0
2018-Apr-03 04:00N 49°11' W 122°55'0 0.0
2018-Apr-03 03:30N 49°11' W 122°55'0 0.0
2018-Apr-03 03:00N 49°11' W 122°55'0 0.0
2018-Apr-03 02:30N 49°11' W 122°55'0 0.0
2018-Apr-03 02:00N 49°11' W 122°55'0 0.0
2018-Apr-03 01:30N 49°11' W 122°55'0 0.0
2018-Apr-03 01:00N 49°11' W 122°55'0 0.0
2018-Apr-03 00:30N 49°11' W 122°55'0 0.0
2018-Apr-03 00:00N 49°11' W 122°55'0 0.0
2018-Apr-02 23:30N 49°11' W 122°55'0 0.5
2018-Apr-02 23:00N 49°11' W 122°55'4 7.8
2018-Apr-02 22:30N 49°09' W 123°01'510.5
2018-Apr-02 22:00N 49°06' W 123°08'510.2
2018-Apr-02 21:30N 49°08' W 123°15'5 9.3
2018-Apr-02 21:00N 49°04' W 123°20'610.9
2018-Apr-02 20:29N 48°60' W 123°14'714.6
2018-Apr-02 20:00N 48°54' W 123°07'814.8
2018-Apr-02 19:30N 48°48' W 123°00'714.2
2018-Apr-02 18:59N 48°44' W 123°09'612.0
2018-Apr-02 18:30N 48°39' W 123°14'714.6
2018-Apr-02 18:00N 48°32' W 123°12'714.2
2018-Apr-02 17:31N 48°25' W 123°11'612.6
2018-Apr-02 17:00N 48°22' W 123°19'4 7.3
2018-Apr-02 16:30N 48°20' W 123°24'13 4.0
2018-Apr-02 13:17N 48°14' W 123°41'2 5.3
2018-Apr-02 12:54N 48°14' W 123°44'3 5.8
2018-Apr-02 12:23N 48°14' W 123°49'3 5.3
2018-Apr-02 11:52N 48°13' W 123°53'2 5.7
2018-Apr-02 11:29N 48°14' W 123°56'3 5.8
2018-Apr-02 11:00N 48°15' W 124°00'3 5.8
2018-Apr-02 10:30N 48°16' W 124°04'4 6.9
2018-Apr-02 10:00N 48°18' W 124°09'4 8.2
2018-Apr-02 09:30N 48°19' W 124°14'4 8.0
2018-Apr-02 08:59N 48°21' W 124°20'4 7.6
2018-Apr-02 08:30N 48°23' W 124°25'4 7.6
2018-Apr-02 08:00N 48°24' W 124°30'4 8.9
2018-Apr-02 07:30N 48°26' W 124°36'4 8.4
2018-Apr-02 07:00N 48°28' W 124°42'4 9.0
2018-Apr-02 06:30N 48°29' W 124°49'4 8.4
2018-Apr-02 06:00N 48°28' W 124°55'4 7.2
2018-Apr-02 05:30N 48°28' W 125°00'4 7.2
2018-Apr-02 05:00N 48°28' W 125°06'713.7
2018-Apr-02 04:30N 48°28' W 125°16'714.8
2018-Apr-02 04:00N 48°28' W 125°27'815.3
2018-Apr-02 03:30N 48°28' W 125°39'815.2
2018-Apr-02 03:00N 48°29' W 125°50'815.8
2018-Apr-02 02:30N 48°29' W 126°02'815.8
2018-Apr-02 02:00N 48°29' W 126°14'1015.9
2018-Apr-02 01:24N 48°29' W 126°29'  
Track history (hours):
 
Tides and Currents Weather Stations Pressure Air Temp Water Temp Dewpoint Dewpoint Depression Visibility Wind Speed Wind Dir Waves Ship Positions

Comet Ace

Last reported at 2018-Apr-10 11:20 UTC. Time now 2018-Apr-21 07:59 UTC.
Position N 30°28' W 124°58'.
Warning: this ship's position is 10 days out of date.

Length 175 m; draft 6.8 m.

Type: Cargo ship. MMSI: 351757000.

Date/timePositionNaut miles runAvg speedWind from/ knotsBaromVisibWave heightAir tempDewpointWater temp
2018-Apr-10 11:20N 30°28' W 124°58'916.1
2018-Apr-10 10:48N 30°28' W 124°48'716.0
2018-Apr-10 10:21N 30°28' W 124°40'816.1
2018-Apr-10 09:52N 30°27' W 124°31'616.0
2018-Apr-10 09:30N 30°27' W 124°24'1716.0
2018-Apr-10 08:28N 30°26' W 124°05'1616.0
2018-Apr-10 07:29N 30°25' W 123°47'915.7
2018-Apr-10 06:56N 30°24' W 123°37'715.8
2018-Apr-10 06:30N 30°24' W 123°29'6315.8
2018-Apr-10 02:30N 30°20' W 122°16'816.1
2018-Apr-10 02:00N 30°21' W 122°07'15415.3
2018-Apr-09 15:56N 30°52' W 119°12'5315.6
2018-Apr-09 12:33N 31°16' W 118°17'116.1
2018-Apr-09 12:30N 31°16' W 118°16'1916.5
2018-Apr-09 11:22N 31°30' W 118°01'615.7
2018-Apr-09 10:59N 31°35' W 117°56'715.5
2018-Apr-09 10:30N 31°41' W 117°51'815.6
2018-Apr-09 10:00N 31°47' W 117°45'1615.8
2018-Apr-09 08:58N 32°02' W 117°38'816.5
2018-Apr-09 08:29N 32°10' W 117°38'816.6
2018-Apr-09 08:00N 32°18' W 117°38'816.9
2018-Apr-09 07:30N 32°26' W 117°38'816.8
2018-Apr-09 07:00N 32°35' W 117°39'816.9
2018-Apr-09 06:30N 32°42' W 117°44'816.7
2018-Apr-09 06:00N 32°49' W 117°48'816.7
2018-Apr-09 05:30N 32°57' W 117°53'815.7
2018-Apr-09 05:00N 33°04' W 117°57'510.4
2018-Apr-09 04:30N 33°09' W 117°60'510.1
2018-Apr-09 04:00N 33°13' W 118°02'5 9.7
2018-Apr-09 03:30N 33°17' W 118°05'5 9.3
2018-Apr-09 03:00N 33°22' W 118°07'5 9.6
2018-Apr-09 02:30N 33°26' W 118°09'5 9.8
2018-Apr-09 02:00N 33°31' W 118°11'5 9.7
2018-Apr-09 01:30N 33°35' W 118°13'4 9.0
2018-Apr-09 01:00N 33°40' W 118°15'4 7.5
2018-Apr-09 00:31N 33°43' W 118°16'3 5.3
2018-Apr-09 00:00N 33°46' W 118°15'0 0.3
2018-Apr-08 23:29N 33°46' W 118°15'0 0.0
2018-Apr-08 22:59N 33°46' W 118°15'0 0.0
2018-Apr-08 22:29N 33°46' W 118°15'0 0.0
2018-Apr-08 21:56N 33°46' W 118°15'0 0.0
2018-Apr-08 21:29N 33°46' W 118°15'0 0.0
2018-Apr-08 20:56N 33°46' W 118°15'0 0.0
2018-Apr-08 20:29N 33°46' W 118°15'0 0.0
2018-Apr-08 19:59N 33°46' W 118°15'0 0.0
2018-Apr-08 19:29N 33°46' W 118°15'0 0.0
2018-Apr-08 18:59N 33°46' W 118°15'0 0.0
2018-Apr-08 18:29N 33°46' W 118°15'0 0.0
2018-Apr-08 17:59N 33°46' W 118°15'0 0.0
2018-Apr-08 17:29N 33°46' W 118°15'0 0.0
2018-Apr-08 16:59N 33°46' W 118°15'0 0.0
2018-Apr-08 16:29N 33°46' W 118°15'0 0.0
2018-Apr-08 15:59N 33°46' W 118°15'0 0.0
2018-Apr-08 15:29N 33°46' W 118°15'0 0.0
2018-Apr-08 14:59N 33°46' W 118°15'0 0.0
2018-Apr-08 14:29N 33°46' W 118°15'0 0.0
2018-Apr-08 13:59N 33°46' W 118°15'0 0.0
2018-Apr-08 13:30N 33°46' W 118°15'0 0.4
2018-Apr-08 13:00N 33°46' W 118°15'2 3.4
2018-Apr-08 12:31N 33°45' W 118°17'3 6.0
2018-Apr-08 12:00N 33°42' W 118°15'3 6.5
2018-Apr-08 11:31N 33°39' W 118°13'4 7.0
2018-Apr-08 11:00N 33°36' W 118°15'3 5.8
2018-Apr-08 10:30N 33°35' W 118°19'4 7.7
2018-Apr-08 10:00N 33°35' W 118°23'4 8.6
2018-Apr-08 09:30N 33°35' W 118°28'4 8.7
2018-Apr-08 09:00N 33°36' W 118°33'5 9.3
2018-Apr-08 08:31N 33°37' W 118°39'  
2018-Apr-05 08:16N 48°15' W 125°18'515.9
2018-Apr-05 07:58N 48°19' W 125°14'816.2
2018-Apr-05 07:29N 48°25' W 125°06'815.4
2018-Apr-05 06:59N 48°30' W 124°58'816.9
2018-Apr-05 06:30N 48°31' W 124°46'816.7
2018-Apr-05 06:00N 48°28' W 124°34'816.7
2018-Apr-05 05:31N 48°25' W 124°22'816.1
2018-Apr-05 05:00N 48°22' W 124°11'816.1
2018-Apr-05 04:30N 48°19' W 123°60'915.9
2018-Apr-05 03:57N 48°16' W 123°47'1612.6
2018-Apr-05 02:40N 48°22' W 123°24'1 8.6
2018-Apr-05 02:30N 48°23' W 123°22'612.9
2018-Apr-05 02:00N 48°25' W 123°13'816.6
2018-Apr-05 01:30N 48°33' W 123°13'815.9
2018-Apr-05 01:00N 48°41' W 123°16'815.4
2018-Apr-05 00:29N 48°45' W 123°06'611.7
2018-Apr-05 00:00N 48°51' W 123°02'815.3
2018-Apr-04 23:30N 48°56' W 123°11'815.9
2018-Apr-04 23:00N 49°01' W 123°20'510.5
2018-Apr-04 22:30N 49°06' W 123°18'611.6
2018-Apr-04 22:00N 49°07' W 123°09'611.9
2018-Apr-04 21:30N 49°09' W 123°01'4 8.2
2018-Apr-04 20:58N 49°11' W 122°55'0 0.2
2018-Apr-04 20:28N 49°11' W 122°55'0 0.0
2018-Apr-04 19:58N 49°11' W 122°55'0 0.0
2018-Apr-04 19:28N 49°11' W 122°55'0 0.0
2018-Apr-04 18:58N 49°11' W 122°55'0 0.0
2018-Apr-04 18:28N 49°11' W 122°55'0 0.0
2018-Apr-04 17:58N 49°11' W 122°55'0 0.0
2018-Apr-04 17:28N 49°11' W 122°55'0 0.0
2018-Apr-04 16:58N 49°11' W 122°55'0 0.0
2018-Apr-04 16:28N 49°11' W 122°55'0 0.0
2018-Apr-04 15:58N 49°11' W 122°55'0 0.0
2018-Apr-04 15:28N 49°11' W 122°55'0 0.0
2018-Apr-04 14:58N 49°11' W 122°55'0 0.0
2018-Apr-04 14:28N 49°11' W 122°55'0 0.0
2018-Apr-04 13:58N 49°11' W 122°55'0 0.0
2018-Apr-04 13:28N 49°11' W 122°55'0 0.0
2018-Apr-04 12:58N 49°11' W 122°55'0 0.0
2018-Apr-04 12:28N 49°11' W 122°55'0 0.0
2018-Apr-04 11:58N 49°11' W 122°55'0 0.0
2018-Apr-04 11:28N 49°11' W 122°55'0 0.0
2018-Apr-04 10:58N 49°11' W 122°55'0 0.0
2018-Apr-04 10:28N 49°11' W 122°55'0 0.0
2018-Apr-04 09:58N 49°11' W 122°55'0 0.0
2018-Apr-04 09:28N 49°11' W 122°55'0 0.0
2018-Apr-04 08:58N 49°11' W 122°55'0 0.0
2018-Apr-04 08:28N 49°11' W 122°55'0 0.0
2018-Apr-04 07:58N 49°11' W 122°55'0 0.0
2018-Apr-04 07:28N 49°11' W 122°55'0 0.0
2018-Apr-04 06:58N 49°11' W 122°55'0 0.2
2018-Apr-04 06:30N 49°11' W 122°55'0 0.4
2018-Apr-04 06:00N 49°11' W 122°55'0 0.0
2018-Apr-04 05:30N 49°11' W 122°55'0 0.0
2018-Apr-04 05:00N 49°11' W 122°55'0 0.0
2018-Apr-04 04:30N 49°11' W 122°55'0 0.0
2018-Apr-04 04:00N 49°11' W 122°55'0 0.0
2018-Apr-04 03:30N 49°11' W 122°55'0 0.0
2018-Apr-04 03:00N 49°11' W 122°55'0 0.0
2018-Apr-04 02:30N 49°11' W 122°55'0 0.0
2018-Apr-04 02:00N 49°11' W 122°55'0 0.0
2018-Apr-04 01:30N 49°11' W 122°55'0 0.0
2018-Apr-04 01:00N 49°11' W 122°55'0 0.0
2018-Apr-04 00:30N 49°11' W 122°55'0 0.0
2018-Apr-04 00:00N 49°11' W 122°55'0 0.0
2018-Apr-03 23:30N 49°11' W 122°55'0 0.0
2018-Apr-03 23:00N 49°11' W 122°55'0 0.0
2018-Apr-03 22:30N 49°11' W 122°55'0 0.0
2018-Apr-03 22:00N 49°11' W 122°55'0 0.0
2018-Apr-03 21:30N 49°11' W 122°55'0 0.0
2018-Apr-03 21:00N 49°11' W 122°55'0 0.0
2018-Apr-03 20:30N 49°11' W 122°55'0 0.0
2018-Apr-03 20:00N 49°11' W 122°55'0 0.0
2018-Apr-03 19:30N 49°11' W 122°55'0 0.0
2018-Apr-03 19:00N 49°11' W 122°55'0 0.0
2018-Apr-03 18:30N 49°11' W 122°55'0 0.0
2018-Apr-03 18:00N 49°11' W 122°55'0 0.0
2018-Apr-03 17:30N 49°11' W 122°55'0 0.0
2018-Apr-03 17:00N 49°11' W 122°55'0 0.0
2018-Apr-03 16:30N 49°11' W 122°55'0 0.0
2018-Apr-03 16:00N 49°11' W 122°55'0 0.0
2018-Apr-03 15:30N 49°11' W 122°55'0 0.0
2018-Apr-03 15:00N 49°11' W 122°55'0 0.0
2018-Apr-03 14:30N 49°11' W 122°55'0 0.0
2018-Apr-03 14:00N 49°11' W 122°55'0 0.0
2018-Apr-03 13:30N 49°11' W 122°55'0 0.0
2018-Apr-03 13:00N 49°11' W 122°55'0 0.0
2018-Apr-03 12:30N 49°11' W 122°55'0 0.0
2018-Apr-03 12:00N 49°11' W 122°55'0 0.0
2018-Apr-03 11:30N 49°11' W 122°55'0 0.0
2018-Apr-03 11:00N 49°11' W 122°55'0 0.0
2018-Apr-03 10:30N 49°11' W 122°55'0 0.0
2018-Apr-03 10:00N 49°11' W 122°55'0 0.0
2018-Apr-03 09:30N 49°11' W 122°55'0 0.0
2018-Apr-03 09:00N 49°11' W 122°55'0 0.0
2018-Apr-03 08:30N 49°11' W 122°55'0 0.0
2018-Apr-03 07:57N 49°11' W 122°55'0 0.0
2018-Apr-03 07:30N 49°11' W 122°55'0 0.0
2018-Apr-03 07:00N 49°11' W 122°55'0 0.0
2018-Apr-03 06:30N 49°11' W 122°55'0 0.0
2018-Apr-03 06:00N 49°11' W 122°55'0 0.0
2018-Apr-03 05:30N 49°11' W 122°55'0 0.0
2018-Apr-03 05:00N 49°11' W 122°55'0 0.0
2018-Apr-03 04:30N 49°11' W 122°55'0 0.0
2018-Apr-03 04:00N 49°11' W 122°55'0 0.0
2018-Apr-03 03:30N 49°11' W 122°55'0 0.0
2018-Apr-03 03:00N 49°11' W 122°55'0 0.0
2018-Apr-03 02:30N 49°11' W 122°55'0 0.0
2018-Apr-03 02:00N 49°11' W 122°55'0 0.0
2018-Apr-03 01:30N 49°11' W 122°55'0 0.0
2018-Apr-03 01:00N 49°11' W 122°55'0 0.0
2018-Apr-03 00:30N 49°11' W 122°55'0 0.0
2018-Apr-03 00:00N 49°11' W 122°55'0 0.0
2018-Apr-02 23:30N 49°11' W 122°55'0 0.5
2018-Apr-02 23:00N 49°11' W 122°55'4 7.8
2018-Apr-02 22:30N 49°09' W 123°01'510.5
2018-Apr-02 22:00N 49°06' W 123°08'510.2
2018-Apr-02 21:30N 49°08' W 123°15'5 9.3
2018-Apr-02 21:00N 49°04' W 123°20'610.9
2018-Apr-02 20:29N 48°60' W 123°14'714.6
2018-Apr-02 20:00N 48°54' W 123°07'814.8
2018-Apr-02 19:30N 48°48' W 123°00'714.2
2018-Apr-02 18:59N 48°44' W 123°09'612.0
2018-Apr-02 18:30N 48°39' W 123°14'714.6
2018-Apr-02 18:00N 48°32' W 123°12'714.2
2018-Apr-02 17:31N 48°25' W 123°11'612.6
2018-Apr-02 17:00N 48°22' W 123°19'4 7.3
2018-Apr-02 16:30N 48°20' W 123°24'13 4.0
2018-Apr-02 13:17N 48°14' W 123°41'2 5.3
2018-Apr-02 12:54N 48°14' W 123°44'3 5.8
2018-Apr-02 12:23N 48°14' W 123°49'3 5.3
2018-Apr-02 11:52N 48°13' W 123°53'2 5.7
2018-Apr-02 11:29N 48°14' W 123°56'3 5.8
2018-Apr-02 11:00N 48°15' W 124°00'3 5.8
2018-Apr-02 10:30N 48°16' W 124°04'4 6.9
2018-Apr-02 10:00N 48°18' W 124°09'4 8.2
2018-Apr-02 09:30N 48°19' W 124°14'4 8.0
2018-Apr-02 08:59N 48°21' W 124°20'4 7.6
2018-Apr-02 08:30N 48°23' W 124°25'4 7.6
2018-Apr-02 08:00N 48°24' W 124°30'4 8.9
2018-Apr-02 07:30N 48°26' W 124°36'4 8.4
2018-Apr-02 07:00N 48°28' W 124°42'4 9.0
2018-Apr-02 06:30N 48°29' W 124°49'4 8.4
2018-Apr-02 06:00N 48°28' W 124°55'4 7.2
2018-Apr-02 05:30N 48°28' W 125°00'4 7.2
2018-Apr-02 05:00N 48°28' W 125°06'713.7
2018-Apr-02 04:30N 48°28' W 125°16'714.8
2018-Apr-02 04:00N 48°28' W 125°27'815.3
2018-Apr-02 03:30N 48°28' W 125°39'815.2
2018-Apr-02 03:00N 48°29' W 125°50'815.8
2018-Apr-02 02:30N 48°29' W 126°02'815.8
2018-Apr-02 02:00N 48°29' W 126°14'1015.9
2018-Apr-02 01:24N 48°29' W 126°29'  

Dump ship's entire track history